createdAt,value
2019-02-16T00:06:45.046Z,99.90
2019-02-16T00:09:15.141Z,99.90
2019-02-16T00:11:47.242Z,99.90
2019-02-16T00:16:50.029Z,99.90
2019-02-16T00:19:22.783Z,99.90
2019-02-16T00:24:23.568Z,99.90
2019-02-16T00:26:56.182Z,99.90
2019-02-16T00:34:25.666Z,99.90
2019-02-16T00:41:56.143Z,99.90
2019-02-16T00:47:01.188Z,99.90
2019-02-16T00:54:32.456Z,99.90
2019-02-16T00:59:33.239Z,99.90
2019-02-16T01:22:07.973Z,99.90
2019-02-16T01:24:49.163Z,99.90
2019-02-16T01:27:20.431Z,99.90
2019-02-16T01:32:20.246Z,99.90
2019-02-16T01:34:50.375Z,99.90
2019-02-16T01:37:20.475Z,99.90
2019-02-16T01:42:32.779Z,99.90
2019-02-16T01:45:02.879Z,99.90
2019-02-16T01:47:32.987Z,99.90
2019-02-16T01:50:03.220Z,99.90
2019-02-16T01:57:39.049Z,99.90
2019-02-16T02:00:10.342Z,99.90
2019-02-16T02:02:40.436Z,99.90
2019-02-16T02:05:14.700Z,99.90
2019-02-16T02:10:15.515Z,99.90
2019-02-16T02:27:44.887Z,99.90
2019-02-16T02:32:49.901Z,99.90
2019-02-16T02:35:20.057Z,99.90
2019-02-16T02:40:20.852Z,99.90
2019-02-16T02:42:50.950Z,99.90
2019-02-16T02:45:21.080Z,99.90
2019-02-16T02:47:53.101Z,99.90
2019-02-16T02:50:23.221Z,99.90
2019-02-16T02:52:53.363Z,99.90
2019-02-16T02:55:26.534Z,99.90
2019-02-16T02:57:56.634Z,99.90
2019-02-16T03:00:26.752Z,99.90
2019-02-16T03:02:57.767Z,99.90
2019-02-16T03:07:58.528Z,99.90
2019-02-16T03:13:00.489Z,99.90
2019-02-16T03:20:36.725Z,99.90
2019-02-16T03:28:44.601Z,99.90
2019-02-16T03:31:47.965Z,99.90
2019-02-16T03:34:39.196Z,99.90
2019-02-16T03:37:46.030Z,99.90
2019-02-16T03:42:45.817Z,99.90
2019-02-16T03:55:16.162Z,99.90
2019-02-16T03:57:46.254Z,99.90
2019-02-16T04:02:46.027Z,99.90
2019-02-16T04:10:15.519Z,99.90
2019-02-16T04:17:47.218Z,99.90
2019-02-16T04:22:48.539Z,99.90
2019-02-16T04:32:55.691Z,99.90
2019-02-16T04:35:25.792Z,99.90
2019-02-16T04:37:59.910Z,99.90
2019-02-16T04:40:34.040Z,99.90
2019-02-16T04:48:07.468Z,99.90
2019-02-16T04:50:37.567Z,99.90
2019-02-16T05:03:21.491Z,99.90
2019-02-16T05:10:57.287Z,99.90
2019-02-16T05:13:27.398Z,99.90
2019-02-16T05:18:27.180Z,99.90
2019-02-16T05:25:59.646Z,99.90
2019-02-16T05:28:29.745Z,99.90
2019-02-16T05:33:35.413Z,99.90
2019-02-16T05:36:05.510Z,99.90
2019-02-16T05:38:42.513Z,99.90
2019-02-16T05:41:18.562Z,99.90
2019-02-16T05:43:48.680Z,99.90
2019-02-16T05:46:18.773Z,99.90
2019-02-16T05:48:48.871Z,99.90
2019-02-16T05:53:48.672Z,99.90
2019-02-16T05:58:49.400Z,99.90
2019-02-16T06:03:59.007Z,99.90
2019-02-16T06:06:29.102Z,99.90
2019-02-16T06:08:59.219Z,99.90
2019-02-16T06:14:06.004Z,99.90
2019-02-16T06:16:36.087Z,99.90
2019-02-16T06:19:08.155Z,99.90
2019-02-16T06:21:38.286Z,99.90
2019-02-16T06:24:08.403Z,99.90
2019-02-16T06:31:39.208Z,99.90
2019-02-16T06:36:44.230Z,99.90
2019-02-16T06:39:14.333Z,99.90
2019-02-16T06:41:44.446Z,99.90
2019-02-16T06:44:15.500Z,99.90
2019-02-16T06:46:45.612Z,99.90
2019-02-16T06:51:53.379Z,99.90
2019-02-16T06:59:31.231Z,99.90
2019-02-16T07:07:03.570Z,99.90
2019-02-16T07:09:36.885Z,99.90
2019-02-16T07:12:06.980Z,99.90
2019-02-16T07:14:37.097Z,99.90
2019-02-16T07:17:12.022Z,99.90
2019-02-16T07:19:44.985Z,99.90
2019-02-16T07:24:46.794Z,99.90
2019-02-16T07:34:47.896Z,99.90
2019-02-16T07:39:47.714Z,99.90
2019-02-16T07:42:17.814Z,99.90
2019-02-16T07:45:01.264Z,99.90
2019-02-16T07:50:04.322Z,99.90
2019-02-16T07:55:36.066Z,99.90
2019-02-16T07:58:10.341Z,99.90
2019-02-16T08:00:53.990Z,99.90
2019-02-16T08:03:28.560Z,99.90
2019-02-16T08:06:03.232Z,99.90
2019-02-16T08:08:51.740Z,99.90
2019-02-16T08:24:41.167Z,99.90
2019-02-16T08:32:51.633Z,99.90
2019-02-16T08:40:41.866Z,99.90
2019-02-16T08:43:22.877Z,99.90
2019-02-16T08:51:39.766Z,99.90
2019-02-16T08:54:17.070Z,99.90
2019-02-16T08:57:01.051Z,99.90
2019-02-16T09:10:46.647Z,99.90
2019-02-16T09:21:15.214Z,99.90
2019-02-16T09:34:35.201Z,99.90
2019-02-16T09:52:49.935Z,99.90
2019-02-16T10:13:46.502Z,99.90
2019-02-16T10:30:08.704Z,99.90
2019-02-16T10:35:22.003Z,99.90
2019-02-16T10:38:05.679Z,99.90
2019-02-16T10:46:17.932Z,99.90
2019-02-16T10:48:55.711Z,99.90
2019-02-16T10:51:27.492Z,99.90
2019-02-16T10:54:06.292Z,99.90
2019-02-16T10:56:46.991Z,99.90
2019-02-16T11:06:55.608Z,99.90
2019-02-16T11:17:38.327Z,99.90
2019-02-16T11:22:58.163Z,97.20
2019-02-16T11:36:31.547Z,94.10
2019-02-16T11:39:15.219Z,87.20
2019-02-16T11:51:59.582Z,76.30
2019-02-16T11:54:31.360Z,77.30
2019-02-16T12:02:25.385Z,68.50
2019-02-16T12:12:47.564Z,67.30
2019-02-16T12:15:47.077Z,65.20
2019-02-16T12:36:50.701Z,61.60
2019-02-16T13:11:15.567Z,60.50
2019-02-16T13:21:35.909Z,60.90
2019-02-16T13:32:09.789Z,59.50
2019-02-16T13:44:59.523Z,61.10
2019-02-16T13:55:36.274Z,62.20
2019-02-16T14:03:48.245Z,58.40
2019-02-16T14:06:25.952Z,58.50
2019-02-16T14:14:12.764Z,54.40
2019-02-16T14:27:15.911Z,54.90
2019-02-16T14:29:51.091Z,55.60
2019-02-16T14:32:27.073Z,55.30
2019-02-16T14:37:37.303Z,54.70
2019-02-16T14:40:08.764Z,53.70
2019-02-16T14:42:39.816Z,54.90
2019-02-16T14:45:13.759Z,55.50
2019-02-16T14:52:43.285Z,54.20
2019-02-16T15:17:48.247Z,52.00
2019-02-16T15:20:19.315Z,52.20
2019-02-16T15:40:24.868Z,57.10
2019-02-16T15:47:54.402Z,56.20
2019-02-16T15:50:24.501Z,56.50
2019-02-16T15:52:55.505Z,58.20
2019-02-16T16:00:39.992Z,69.40
2019-02-16T16:05:40.797Z,96.70
2019-02-16T16:08:15.219Z,99.90
2019-02-16T16:10:55.772Z,99.90
2019-02-16T16:16:04.211Z,99.90
2019-02-16T16:24:02.663Z,99.90
2019-02-16T16:29:15.239Z,99.90
2019-02-16T16:32:04.522Z,99.90
2019-02-16T16:34:36.267Z,99.90
2019-02-16T16:42:37.662Z,99.90
2019-02-16T16:45:10.261Z,99.90
2019-02-16T16:47:51.119Z,99.90
2019-02-16T16:50:44.413Z,99.90
2019-02-16T16:58:24.924Z,99.90
2019-02-16T17:03:40.554Z,99.90
2019-02-16T17:06:15.048Z,99.90
2019-02-16T17:13:58.845Z,99.90
2019-02-16T17:19:11.084Z,99.90
2019-02-16T17:24:32.481Z,99.90
2019-02-16T17:32:40.016Z,99.90
2019-02-16T17:35:25.436Z,99.90
2019-02-16T17:40:31.171Z,99.90
2019-02-16T17:53:36.476Z,99.90
2019-02-16T17:56:10.908Z,99.90
2019-02-16T18:01:25.744Z,99.90
2019-02-16T18:04:06.046Z,99.90
2019-02-16T18:12:15.806Z,99.90
2019-02-16T18:17:28.690Z,99.90
2019-02-16T18:20:03.152Z,99.90
2019-02-16T18:22:42.590Z,99.90
2019-02-16T18:28:00.077Z,99.90
2019-02-16T18:30:31.814Z,99.90
2019-02-16T18:35:49.802Z,99.90
2019-02-16T18:38:27.198Z,99.90
2019-02-16T18:40:58.979Z,99.90
2019-02-16T18:43:36.365Z,99.90
2019-02-16T18:46:09.034Z,99.90
2019-02-16T18:48:54.282Z,99.90
2019-02-16T18:51:43.650Z,99.90
2019-02-16T19:02:07.251Z,99.90
2019-02-16T19:04:48.039Z,99.90
2019-02-16T19:10:08.397Z,99.90
2019-02-16T19:15:39.669Z,99.90
2019-02-16T19:21:01.522Z,99.90
2019-02-16T19:23:45.291Z,99.90
2019-02-16T19:26:20.081Z,99.90
2019-02-16T19:28:54.711Z,99.90
2019-02-16T19:42:12.227Z,99.90
2019-02-16T19:45:00.357Z,99.90
2019-02-16T19:47:34.813Z,99.90
2019-02-16T19:52:52.298Z,99.90
2019-02-16T19:55:26.990Z,99.90
2019-02-16T20:00:40.025Z,99.90
2019-02-16T20:06:11.073Z,99.90
2019-02-16T20:14:36.626Z,99.90
2019-02-16T20:28:38.649Z,99.90
2019-02-16T20:31:12.826Z,99.90
2019-02-16T20:33:54.181Z,99.90
2019-02-16T20:47:02.083Z,99.90
2019-02-16T21:03:08.094Z,99.90
2019-02-16T21:05:39.833Z,99.90
2019-02-16T21:08:29.681Z,99.90
2019-02-16T21:19:36.074Z,99.90
2019-02-16T21:22:14.798Z,99.90
2019-02-16T21:27:28.686Z,99.90
2019-02-16T21:30:03.975Z,99.90
2019-02-16T21:32:51.849Z,99.90
2019-02-16T21:51:32.013Z,99.90
2019-02-16T21:54:06.725Z,99.90
2019-02-16T22:04:34.978Z,99.90
2019-02-16T22:07:18.333Z,99.90
2019-02-16T22:20:02.917Z,99.90
2019-02-16T22:25:05.983Z,99.90
2019-02-16T22:30:10.690Z,99.90
2019-02-16T22:32:43.246Z,99.90
2019-02-16T22:37:43.127Z,99.90
2019-02-16T22:45:16.727Z,99.90
2019-02-16T22:50:22.427Z,99.90
2019-02-16T23:00:38.335Z,99.90
2019-02-16T23:03:08.781Z,99.90
2019-02-16T23:10:40.925Z,99.90
2019-02-16T23:20:40.142Z,99.90
2019-02-16T23:25:40.205Z,99.90
2019-02-16T23:30:40.032Z,99.90
2019-02-16T23:35:39.831Z,99.90
2019-02-16T23:40:41.671Z,99.90
2019-02-16T23:50:41.006Z,99.90
2019-02-16T23:55:40.802Z,99.90
